createdAt,value
2018-06-24T00:00:05.876Z,12.37
2018-06-24T00:02:35.086Z,12.37
2018-06-24T00:05:04.324Z,12.21
2018-06-24T00:07:33.477Z,12.26
2018-06-24T00:10:02.678Z,12.39
2018-06-24T00:12:31.953Z,12.40
2018-06-24T00:15:01.077Z,12.26
2018-06-24T00:17:30.269Z,12.16
2018-06-24T00:19:59.469Z,12.08
2018-06-24T00:22:28.546Z,12.08
2018-06-24T00:24:57.677Z,11.99
2018-06-24T00:27:27.041Z,12.08
2018-06-24T00:29:56.265Z,12.05
2018-06-24T00:32:25.573Z,12.12
2018-06-24T00:34:54.781Z,12.04
2018-06-24T00:37:23.986Z,12.04
2018-06-24T00:39:53.170Z,11.91
2018-06-24T00:42:22.352Z,11.85
2018-06-24T00:44:51.845Z,11.84
2018-06-24T00:47:20.862Z,11.90
2018-06-24T00:49:50.088Z,11.89
2018-06-24T00:52:19.258Z,11.97
2018-06-24T00:54:48.458Z,11.83
2018-06-24T00:57:17.734Z,11.79
2018-06-24T00:59:57.498Z,11.74
2018-06-24T01:02:26.837Z,11.70
2018-06-24T01:04:55.994Z,11.66
2018-06-24T01:07:25.199Z,11.64
2018-06-24T01:09:54.393Z,11.51
2018-06-24T01:12:23.706Z,11.51
2018-06-24T01:14:52.942Z,11.51
2018-06-24T01:17:22.098Z,11.46
2018-06-24T01:19:51.392Z,11.38
2018-06-24T01:22:20.607Z,11.45
2018-06-24T01:24:49.805Z,11.60
2018-06-24T01:27:19.034Z,11.58
2018-06-24T01:29:48.097Z,11.51
2018-06-24T01:32:17.388Z,11.44
2018-06-24T01:34:46.650Z,11.58
2018-06-24T01:37:15.781Z,11.56
2018-06-24T01:39:45.018Z,11.52
2018-06-24T01:42:14.186Z,11.48
2018-06-24T01:44:43.411Z,11.47
2018-06-24T01:47:12.573Z,11.40
2018-06-24T01:49:42.057Z,11.36
2018-06-24T01:52:11.183Z,11.27
2018-06-24T01:54:40.398Z,11.18
2018-06-24T01:57:09.577Z,11.11
2018-06-24T01:59:38.910Z,11.08
2018-06-24T02:02:08.090Z,11.08
2018-06-24T02:04:37.283Z,11.12
2018-06-24T02:07:06.473Z,11.18
2018-06-24T02:09:35.670Z,11.12
2018-06-24T02:12:04.797Z,11.13
2018-06-24T02:14:33.973Z,11.17
2018-06-24T02:17:03.174Z,11.19
2018-06-24T02:19:32.369Z,11.19
2018-06-24T02:22:01.561Z,11.30
2018-06-24T02:24:30.791Z,11.33
2018-06-24T02:26:59.966Z,11.30
2018-06-24T02:29:29.153Z,11.17
2018-06-24T02:31:58.403Z,11.11
2018-06-24T02:34:27.679Z,11.06
2018-06-24T02:36:56.994Z,11.02
2018-06-24T02:39:26.169Z,11.05
2018-06-24T02:41:55.346Z,11.06
2018-06-24T02:44:24.627Z,11.03
2018-06-24T02:46:53.866Z,10.95
2018-06-24T02:49:23.078Z,10.85
2018-06-24T02:51:52.341Z,10.89
2018-06-24T02:54:21.550Z,10.87
2018-06-24T02:56:50.755Z,10.94
2018-06-24T02:59:19.962Z,10.97
2018-06-24T03:01:49.151Z,11.12
2018-06-24T03:04:18.409Z,11.07
2018-06-24T03:06:47.526Z,11.08
2018-06-24T03:09:16.742Z,11.09
2018-06-24T03:11:45.930Z,11.13
2018-06-24T03:14:15.163Z,11.19
2018-06-24T03:16:44.317Z,11.30
2018-06-24T03:19:13.413Z,11.36
2018-06-24T03:21:42.649Z,11.33
2018-06-24T03:24:11.826Z,11.44
2018-06-24T03:26:41.018Z,11.54
2018-06-24T03:29:10.219Z,11.72
2018-06-24T03:31:39.427Z,11.80
2018-06-24T03:34:08.711Z,12.17
2018-06-24T03:36:37.915Z,13.89
2018-06-24T03:39:09.453Z,16.16
2018-06-24T03:41:38.685Z,18.20
2018-06-24T03:44:08.145Z,19.73
2018-06-24T03:46:37.654Z,21.22
2018-06-24T03:49:06.769Z,20.85
2018-06-24T03:51:36.035Z,19.69
2018-06-24T03:54:05.165Z,20.98
2018-06-24T03:56:34.370Z,21.96
2018-06-24T03:59:03.757Z,22.62
2018-06-24T04:01:32.957Z,23.88
2018-06-24T04:04:02.293Z,25.20
2018-06-24T04:06:31.461Z,26.90
2018-06-24T04:09:00.423Z,27.45
2018-06-24T04:11:29.454Z,28.58
2018-06-24T04:13:58.641Z,28.50
2018-06-24T04:16:27.991Z,28.00
2018-06-24T04:18:57.141Z,26.14
2018-06-24T04:21:26.337Z,23.78
2018-06-24T04:23:55.573Z,21.63
2018-06-24T04:26:24.738Z,21.02
2018-06-24T04:28:53.938Z,21.98
2018-06-24T04:31:23.138Z,23.63
2018-06-24T04:33:52.339Z,25.63
2018-06-24T04:36:21.551Z,26.49
2018-06-24T04:38:50.850Z,27.24
2018-06-24T04:41:20.026Z,27.82
2018-06-24T04:43:49.225Z,28.58
2018-06-24T04:46:18.702Z,29.60
2018-06-24T04:48:47.525Z,28.31
2018-06-24T04:51:16.521Z,26.91
2018-06-24T04:53:45.726Z,25.86
2018-06-24T04:56:14.739Z,27.12
2018-06-24T04:58:43.985Z,27.33
2018-06-24T05:01:13.353Z,28.10
2018-06-24T05:03:42.542Z,28.54
2018-06-24T05:06:11.626Z,29.34
2018-06-24T05:08:40.597Z,30.01
2018-06-24T05:11:09.893Z,30.38
2018-06-24T05:13:39.538Z,30.21
2018-06-24T05:16:08.477Z,30.27
2018-06-24T05:18:37.729Z,30.68
2018-06-24T05:21:06.894Z,29.74
2018-06-24T05:23:36.118Z,28.58
2018-06-24T05:26:05.379Z,28.24
2018-06-24T05:28:34.352Z,28.62
2018-06-24T05:31:03.525Z,29.43
2018-06-24T05:33:32.808Z,30.61
2018-06-24T05:36:02.101Z,31.61
2018-06-24T05:38:31.185Z,32.69
2018-06-24T05:41:00.490Z,32.67
2018-06-24T05:43:29.702Z,32.51
2018-06-24T05:45:58.785Z,32.79
2018-06-24T05:48:27.782Z,32.97
2018-06-24T05:50:57.013Z,32.59
2018-06-24T05:53:25.985Z,33.05
2018-06-24T05:55:55.174Z,33.39
2018-06-24T05:58:24.175Z,33.61
2018-06-24T06:00:53.391Z,33.85
2018-06-24T06:03:22.387Z,32.63
2018-06-24T06:05:51.359Z,31.73
2018-06-24T06:08:20.546Z,32.05
2018-06-24T06:10:49.658Z,32.37
2018-06-24T06:13:18.915Z,31.37
2018-06-24T06:15:48.322Z,33.14
2018-06-24T06:18:17.489Z,33.37
2018-06-24T06:20:46.438Z,33.55
2018-06-24T06:23:15.650Z,33.86
2018-06-24T06:25:44.640Z,33.39
2018-06-24T06:28:13.821Z,34.98
2018-06-24T06:30:42.862Z,36.54
2018-06-24T06:33:12.013Z,36.35
2018-06-24T06:35:41.258Z,35.65
2018-06-24T06:38:10.422Z,34.64
2018-06-24T06:40:39.614Z,33.54
2018-06-24T06:43:08.883Z,33.33
2018-06-24T06:45:38.012Z,34.52
2018-06-24T06:48:07.037Z,35.51
2018-06-24T06:50:36.084Z,34.04
2018-06-24T06:53:05.091Z,33.13
2018-06-24T06:55:34.200Z,32.79
2018-06-24T06:58:03.507Z,32.67
2018-06-24T07:00:32.822Z,31.72
2018-06-24T07:03:01.981Z,31.50
2018-06-24T07:05:31.192Z,32.28
2018-06-24T07:08:01.052Z,32.94
2018-06-24T07:10:30.093Z,33.07
2018-06-24T07:12:59.440Z,32.69
2018-06-24T07:15:28.620Z,33.64
2018-06-24T07:17:57.884Z,32.21
2018-06-24T07:20:27.095Z,32.16
2018-06-24T07:22:56.281Z,32.32
2018-06-24T07:25:25.523Z,32.46
2018-06-24T07:27:54.482Z,32.98
2018-06-24T07:30:23.760Z,33.53
2018-06-24T07:32:52.981Z,33.36
2018-06-24T07:35:22.169Z,33.60
2018-06-24T07:37:51.502Z,33.48
2018-06-24T07:40:20.791Z,32.20
2018-06-24T07:42:50.076Z,33.22
2018-06-24T07:45:19.381Z,34.38
2018-06-24T07:47:48.609Z,35.77
2018-06-24T07:50:17.828Z,36.42
2018-06-24T07:52:46.982Z,35.39
2018-06-24T07:55:16.174Z,34.73
2018-06-24T07:57:45.370Z,33.21
2018-06-24T08:00:14.184Z,31.66
2018-06-24T08:02:42.957Z,31.60
2018-06-24T08:05:11.681Z,30.99
2018-06-24T08:07:40.427Z,30.30
2018-06-24T08:10:09.170Z,30.16
2018-06-24T08:12:37.902Z,29.30
2018-06-24T08:15:06.674Z,28.90
2018-06-24T08:17:35.428Z,28.21
2018-06-24T08:20:04.220Z,27.57
2018-06-24T08:22:32.901Z,26.51
2018-06-24T08:25:01.605Z,25.16
2018-06-24T08:27:30.413Z,25.89
2018-06-24T08:29:59.122Z,26.23
2018-06-24T08:32:27.985Z,26.00
2018-06-24T08:34:56.727Z,26.38
2018-06-24T08:37:25.462Z,26.51
2018-06-24T08:39:54.195Z,26.27
2018-06-24T08:42:22.927Z,26.43
2018-06-24T08:44:51.660Z,25.77
2018-06-24T08:47:20.384Z,25.74
2018-06-24T08:49:49.105Z,25.91
2018-06-24T08:52:17.834Z,26.51
2018-06-24T08:54:46.545Z,26.40
2018-06-24T08:57:15.285Z,26.59
2018-06-24T08:59:44.078Z,26.60
2018-06-24T09:02:12.777Z,25.82
2018-06-24T09:04:41.527Z,26.21
2018-06-24T09:07:10.239Z,26.57
2018-06-24T09:09:38.937Z,26.35
2018-06-24T09:12:07.699Z,26.26
2018-06-24T09:14:36.653Z,26.84
2018-06-24T09:17:05.360Z,27.18
2018-06-24T09:19:34.064Z,26.93
2018-06-24T09:22:02.844Z,27.28
2018-06-24T09:24:32.502Z,26.68
2018-06-24T09:27:01.292Z,25.96
2018-06-24T09:29:30.027Z,25.90
2018-06-24T09:31:58.770Z,26.35
2018-06-24T09:34:27.492Z,26.30
2018-06-24T09:36:56.603Z,26.37
2018-06-24T09:39:25.617Z,26.57
2018-06-24T09:41:55.073Z,26.31
2018-06-24T09:44:24.194Z,26.88
2018-06-24T09:46:53.298Z,28.09
2018-06-24T09:49:22.629Z,29.24
2018-06-24T09:51:51.926Z,29.17
2018-06-24T09:54:20.985Z,29.81
2018-06-24T09:56:50.221Z,30.05
2018-06-24T09:59:19.173Z,29.35
2018-06-24T10:01:48.385Z,29.06
2018-06-24T10:04:17.593Z,29.23
2018-06-24T10:06:46.911Z,29.30
2018-06-24T10:09:16.217Z,27.50
2018-06-24T10:11:45.502Z,27.93
2018-06-24T10:14:14.714Z,28.09
2018-06-24T10:16:43.677Z,27.80
2018-06-24T10:19:12.876Z,29.51
2018-06-24T10:21:42.021Z,30.62
2018-06-24T10:24:11.070Z,30.91
2018-06-24T10:26:40.265Z,30.58
2018-06-24T10:29:09.577Z,30.51
2018-06-24T10:31:38.553Z,30.09
2018-06-24T10:34:07.787Z,29.39
2018-06-24T10:36:36.952Z,29.76
2018-06-24T10:39:09.189Z,29.21
2018-06-24T10:41:38.322Z,30.04
2018-06-24T10:44:07.921Z,30.65
2018-06-24T10:46:37.101Z,31.59
2018-06-24T10:49:06.426Z,31.96
2018-06-24T10:51:35.550Z,32.62
2018-06-24T10:54:05.058Z,34.02
2018-06-24T10:56:34.387Z,35.43
2018-06-24T10:59:03.540Z,35.92
2018-06-24T11:01:32.522Z,35.31
2018-06-24T11:04:01.887Z,34.03
2018-06-24T11:06:30.939Z,33.22
2018-06-24T11:09:00.238Z,30.72
2018-06-24T11:11:29.426Z,30.84
2018-06-24T11:13:58.622Z,30.62
2018-06-24T11:16:27.871Z,29.55
2018-06-24T11:18:56.833Z,30.06
2018-06-24T11:21:26.146Z,30.14
2018-06-24T11:23:55.401Z,29.10
2018-06-24T11:26:24.704Z,29.47
2018-06-24T11:28:53.930Z,29.43
2018-06-24T11:31:23.308Z,29.92
2018-06-24T11:33:52.633Z,29.89
2018-06-24T11:36:21.843Z,29.09
2018-06-24T11:38:50.981Z,29.28
2018-06-24T11:41:20.086Z,29.71
2018-06-24T11:43:49.217Z,29.58
2018-06-24T11:46:18.406Z,29.27
2018-06-24T11:48:47.590Z,29.40
2018-06-24T11:51:16.849Z,28.66
2018-06-24T11:53:46.053Z,29.09
2018-06-24T11:56:15.323Z,30.39
2018-06-24T11:58:44.525Z,31.08
2018-06-24T12:01:13.695Z,31.61
2018-06-24T12:03:42.893Z,32.29
2018-06-24T12:06:11.902Z,31.44
2018-06-24T12:08:41.091Z,31.07
2018-06-24T12:11:10.262Z,31.20
2018-06-24T12:13:39.787Z,31.46
2018-06-24T12:16:08.806Z,31.66
2018-06-24T12:18:38.908Z,31.95
2018-06-24T12:21:07.662Z,33.11
2018-06-24T12:23:36.449Z,33.81
2018-06-24T12:26:05.722Z,31.93
2018-06-24T12:28:34.437Z,32.00
2018-06-24T12:31:03.310Z,31.50
2018-06-24T12:33:32.100Z,30.37
2018-06-24T12:36:00.830Z,29.61
2018-06-24T12:38:29.575Z,29.08
2018-06-24T12:40:58.777Z,29.43
2018-06-24T12:43:27.515Z,29.74
2018-06-24T12:45:57.436Z,30.04
2018-06-24T12:48:26.178Z,29.90
2018-06-24T12:50:54.909Z,29.03
2018-06-24T12:53:23.615Z,28.76
2018-06-24T12:55:52.402Z,29.02
2018-06-24T12:58:21.167Z,29.47
2018-06-24T13:00:50.468Z,29.38
2018-06-24T13:03:18.667Z,28.85
2018-06-24T13:05:47.561Z,28.86
2018-06-24T13:08:16.274Z,28.91
2018-06-24T13:10:45.165Z,29.20
2018-06-24T13:13:13.953Z,29.54
2018-06-24T13:15:42.755Z,29.60
2018-06-24T13:18:11.834Z,29.44
2018-06-24T13:20:40.609Z,29.33
2018-06-24T13:23:09.335Z,28.77
2018-06-24T13:25:38.758Z,28.49
2018-06-24T13:28:08.631Z,28.21
2018-06-24T13:30:37.493Z,27.61
2018-06-24T13:33:06.405Z,27.73
2018-06-24T13:35:35.572Z,27.85
2018-06-24T13:38:04.349Z,27.26
2018-06-24T13:40:33.513Z,27.67
2018-06-24T13:43:02.769Z,26.78
2018-06-24T13:45:32.549Z,27.11
2018-06-24T13:48:01.506Z,27.40
2018-06-24T13:50:30.335Z,27.24
2018-06-24T13:52:59.274Z,27.17
2018-06-24T13:55:27.994Z,26.67
2018-06-24T13:57:56.790Z,25.83
2018-06-24T14:00:25.556Z,25.96
2018-06-24T14:02:54.462Z,26.40
2018-06-24T14:05:23.312Z,26.78
2018-06-24T14:07:52.067Z,26.78
2018-06-24T14:10:20.765Z,26.80
2018-06-24T14:12:49.520Z,26.83
2018-06-24T14:15:18.332Z,27.03
2018-06-24T14:17:47.049Z,27.03
2018-06-24T14:20:16.168Z,26.79
2018-06-24T14:22:45.211Z,26.82
2018-06-24T14:25:14.008Z,27.06
2018-06-24T14:27:42.747Z,27.19
2018-06-24T14:30:11.452Z,27.26
2018-06-24T14:32:40.175Z,27.19
2018-06-24T14:35:08.878Z,27.24
2018-06-24T14:37:37.585Z,26.81
2018-06-24T14:40:06.344Z,26.72
2018-06-24T14:42:35.166Z,26.42
2018-06-24T14:45:03.909Z,26.06
2018-06-24T14:47:32.680Z,26.19
2018-06-24T14:50:01.592Z,26.24
2018-06-24T14:52:30.349Z,26.43
2018-06-24T14:54:59.093Z,26.77
2018-06-24T14:57:27.834Z,26.68
2018-06-24T14:59:56.555Z,26.61
2018-06-24T15:02:25.435Z,26.32
2018-06-24T15:04:54.163Z,26.27
2018-06-24T15:07:22.944Z,26.13
2018-06-24T15:09:51.892Z,25.88
2018-06-24T15:12:20.635Z,25.90
2018-06-24T15:14:49.403Z,25.44
2018-06-24T15:17:18.213Z,25.50
2018-06-24T15:19:46.950Z,25.50
2018-06-24T15:22:15.645Z,25.60
2018-06-24T15:24:44.361Z,25.59
2018-06-24T15:27:13.199Z,25.43
2018-06-24T15:29:41.936Z,25.38
2018-06-24T15:32:10.712Z,25.32
2018-06-24T15:34:39.440Z,25.37
2018-06-24T15:37:08.165Z,25.10
2018-06-24T15:39:36.939Z,25.20
2018-06-24T15:42:05.701Z,25.35
2018-06-24T15:44:34.411Z,25.15
2018-06-24T15:47:03.110Z,25.21
2018-06-24T15:49:31.853Z,25.30
2018-06-24T15:52:00.587Z,25.45
2018-06-24T15:54:29.329Z,25.02
2018-06-24T15:56:58.180Z,25.03
2018-06-24T15:59:26.902Z,25.21
2018-06-24T16:01:55.632Z,25.15
2018-06-24T16:04:24.357Z,25.07
2018-06-24T16:06:53.210Z,24.97
2018-06-24T16:09:21.986Z,24.85
2018-06-24T16:11:50.930Z,24.71
2018-06-24T16:14:19.655Z,24.62
2018-06-24T16:16:48.458Z,24.59
2018-06-24T16:19:18.493Z,24.65
2018-06-24T16:21:48.875Z,24.78
2018-06-24T16:24:20.296Z,24.83
2018-06-24T16:26:50.048Z,24.77
2018-06-24T16:29:20.083Z,24.71
2018-06-24T16:31:50.664Z,24.59
2018-06-24T16:34:20.642Z,24.13
2018-06-24T16:36:49.818Z,24.32
2018-06-24T16:39:18.545Z,24.18
2018-06-24T16:41:47.453Z,24.14
2018-06-24T16:44:16.163Z,24.17
2018-06-24T16:46:45.254Z,24.17
2018-06-24T16:49:14.139Z,24.12
2018-06-24T16:51:42.880Z,24.08
2018-06-24T16:54:12.622Z,24.05
2018-06-24T16:56:41.386Z,23.96
2018-06-24T16:59:10.128Z,23.88
2018-06-24T17:01:38.870Z,23.80
2018-06-24T17:04:07.626Z,23.69
2018-06-24T17:06:36.405Z,23.64
2018-06-24T17:09:07.963Z,23.56
2018-06-24T17:11:37.073Z,23.48
2018-06-24T17:14:05.896Z,23.34
2018-06-24T17:16:35.661Z,23.23
2018-06-24T17:19:04.643Z,23.10
2018-06-24T17:21:33.422Z,22.98
2018-06-24T17:24:02.283Z,22.88
2018-06-24T17:26:31.035Z,22.72
2018-06-24T17:28:59.874Z,22.68
2018-06-24T17:31:28.763Z,22.60
2018-06-24T17:33:57.505Z,22.52
2018-06-24T17:36:26.257Z,22.48
2018-06-24T17:38:55.190Z,22.37
2018-06-24T17:41:23.921Z,22.24
2018-06-24T17:43:52.682Z,22.13
2018-06-24T17:46:21.459Z,22.04
2018-06-24T17:48:50.195Z,21.96
2018-06-24T17:51:19.015Z,21.82
2018-06-24T17:53:47.844Z,21.75
2018-06-24T17:56:16.642Z,21.68
2018-06-24T17:58:45.368Z,21.59
2018-06-24T18:01:14.261Z,21.57
2018-06-24T18:03:43.292Z,21.51
2018-06-24T18:06:17.867Z,21.47
2018-06-24T18:08:52.742Z,21.36
2018-06-24T18:11:27.748Z,21.19
2018-06-24T18:14:02.337Z,21.10
2018-06-24T18:16:36.848Z,20.98
2018-06-24T18:19:12.718Z,20.92
2018-06-24T18:21:47.410Z,20.84
2018-06-24T18:24:23.382Z,20.85
2018-06-24T18:26:58.835Z,20.84
2018-06-24T18:29:34.314Z,20.78
2018-06-24T18:32:09.693Z,20.73
2018-06-24T18:34:44.633Z,20.61
2018-06-24T18:37:20.365Z,20.45
2018-06-24T18:39:55.660Z,20.30
2018-06-24T18:42:29.774Z,20.25
2018-06-24T18:45:01.600Z,20.17
2018-06-24T18:47:33.579Z,20.05
2018-06-24T18:50:02.761Z,19.99
2018-06-24T18:52:31.715Z,19.93
2018-06-24T18:55:00.438Z,19.88
2018-06-24T18:57:32.701Z,19.93
2018-06-24T19:00:04.390Z,19.98
2018-06-24T19:02:37.173Z,20.01
2018-06-24T19:05:06.298Z,20.13
2018-06-24T19:07:35.003Z,20.24
2018-06-24T19:10:03.891Z,20.23
2018-06-24T19:12:32.629Z,20.16
2018-06-24T19:15:01.435Z,20.21
2018-06-24T19:17:30.213Z,20.24
2018-06-24T19:19:58.942Z,20.16
2018-06-24T19:22:27.689Z,20.10
2018-06-24T19:24:56.482Z,20.08
2018-06-24T19:27:25.234Z,20.07
2018-06-24T19:29:54.049Z,20.07
2018-06-24T19:32:22.770Z,20.06
2018-06-24T19:34:51.512Z,19.99
2018-06-24T19:37:20.239Z,19.98
2018-06-24T19:39:49.161Z,20.00
2018-06-24T19:42:21.665Z,19.96
2018-06-24T19:44:50.627Z,19.96
2018-06-24T19:47:19.462Z,19.91
2018-06-24T19:49:48.179Z,19.88
2018-06-24T19:52:17.348Z,19.85
2018-06-24T19:54:46.314Z,19.80
2018-06-24T19:57:15.234Z,19.77
2018-06-24T19:59:45.018Z,19.80
2018-06-24T20:02:14.379Z,19.83
2018-06-24T20:04:43.096Z,19.79
2018-06-24T20:07:11.846Z,19.76
2018-06-24T20:09:40.592Z,19.73
2018-06-24T20:12:09.362Z,19.71
2018-06-24T20:14:38.071Z,19.62
2018-06-24T20:17:06.870Z,19.57
2018-06-24T20:19:35.629Z,19.65
2018-06-24T20:22:04.465Z,19.49
2018-06-24T20:24:33.169Z,19.35
2018-06-24T20:27:01.927Z,19.35
2018-06-24T20:29:30.839Z,19.34
2018-06-24T20:31:59.603Z,19.32
2018-06-24T20:34:28.339Z,19.40
2018-06-24T20:36:57.200Z,19.49
2018-06-24T20:39:25.938Z,19.47
2018-06-24T20:41:55.419Z,19.44
2018-06-24T20:44:24.398Z,19.39
2018-06-24T20:46:53.137Z,19.36
2018-06-24T20:49:21.858Z,19.44
2018-06-24T20:51:50.545Z,19.48
2018-06-24T20:54:19.268Z,19.47
2018-06-24T20:56:47.990Z,19.35
2018-06-24T20:59:16.677Z,19.43
2018-06-24T21:01:45.361Z,19.47
2018-06-24T21:04:15.903Z,19.47
2018-06-24T21:06:44.959Z,19.50
2018-06-24T21:09:13.676Z,19.52
2018-06-24T21:11:42.356Z,19.40
2018-06-24T21:14:12.356Z,19.32
2018-06-24T21:16:41.116Z,19.24
2018-06-24T21:19:09.841Z,19.22
2018-06-24T21:21:38.545Z,19.18
2018-06-24T21:24:07.362Z,19.14
2018-06-24T21:26:36.101Z,19.07
2018-06-24T21:29:04.849Z,19.01
2018-06-24T21:31:33.804Z,18.99
2018-06-24T21:34:02.506Z,18.95
2018-06-24T21:36:31.422Z,18.89
2018-06-24T21:39:00.122Z,18.81
2018-06-24T21:41:28.842Z,18.74
2018-06-24T21:43:57.604Z,18.70
2018-06-24T21:46:26.470Z,18.70
2018-06-24T21:48:55.220Z,18.73
2018-06-24T21:51:23.941Z,18.74
2018-06-24T21:53:52.670Z,18.68
2018-06-24T21:56:21.607Z,18.59
2018-06-24T21:58:50.327Z,18.52
2018-06-24T22:01:19.226Z,18.54
2018-06-24T22:03:48.629Z,18.55
2018-06-24T22:06:17.349Z,18.55
2018-06-24T22:08:46.120Z,18.57
2018-06-24T22:11:14.855Z,18.60
2018-06-24T22:13:43.623Z,18.57
2018-06-24T22:16:12.349Z,18.62
2018-06-24T22:18:41.096Z,18.51
2018-06-24T22:21:09.810Z,18.54
2018-06-24T22:23:38.618Z,18.48
2018-06-24T22:26:07.617Z,18.51
2018-06-24T22:28:36.361Z,18.51
2018-06-24T22:31:05.230Z,18.47
2018-06-24T22:33:33.957Z,18.45
2018-06-24T22:36:02.915Z,18.48
2018-06-24T22:38:31.745Z,18.34
2018-06-24T22:41:00.522Z,18.30
2018-06-24T22:43:29.250Z,18.32
2018-06-24T22:45:57.994Z,18.33
2018-06-24T22:48:26.769Z,18.32
2018-06-24T22:50:55.513Z,18.33
2018-06-24T22:53:24.241Z,18.31
2018-06-24T22:55:52.941Z,18.29
2018-06-24T22:58:21.694Z,18.26
2018-06-24T23:00:50.503Z,18.21
2018-06-24T23:03:19.162Z,18.17
2018-06-24T23:05:47.958Z,18.11
2018-06-24T23:08:16.868Z,18.08
2018-06-24T23:10:45.598Z,18.20
2018-06-24T23:13:14.298Z,18.21
2018-06-24T23:15:43.017Z,18.15
2018-06-24T23:18:11.739Z,18.04
2018-06-24T23:20:40.500Z,18.01
2018-06-24T23:23:09.197Z,17.96
2018-06-24T23:25:37.902Z,17.98
2018-06-24T23:28:06.984Z,17.93
2018-06-24T23:30:35.773Z,17.84
2018-06-24T23:33:04.575Z,17.88
2018-06-24T23:35:33.317Z,17.87
2018-06-24T23:38:02.046Z,17.83
2018-06-24T23:40:30.945Z,17.80
2018-06-24T23:42:59.699Z,17.77
2018-06-24T23:45:28.447Z,17.66
2018-06-24T23:47:57.187Z,17.63
2018-06-24T23:50:25.912Z,17.58
2018-06-24T23:52:54.615Z,17.58
2018-06-24T23:55:23.480Z,17.59
2018-06-24T23:57:52.223Z,17.55
